Saanen, Switzerland

11:45 AM CET am 22. Februar 2017 (GMT +0100)
Rue des Allamans | | Change Station

Höhe 3372 ft 46.49 °N, 7.22 °E | Updated 2 minutes ago

Teils Wolkig
Teils Wolkig
40.6 °F
gefühlte 41 °F
N
0.6
Wind Wechselnd Wind aus Ost
Gusts 1.2 mph

Heute
Max. -- | schwach -- °F
--% Regenrisiko
Gestern
Max. -- | schwach -- °F
Precip. -- inch
Druck 30.12 inch
Sichtweite 6.2 Meilen
Wolken Few 10000 ft
Windchill 41 °F
Taupunkt 37 °F
Feuchtigkeit 86%
Regen 0.00 inch
Schneehöhe Nicht verfügbar..
7:22 AM 6:06 PM
Letztes Viertel, 18% visible
METAR LSGS 221020Z 23004KT 190V250 9999 FEW100 10/04 Q1020
Druck 30.12 inch
Sichtweite 6.2 Meilen
Wolken Few 10000 ft
Windchill 41 °F
Taupunkt 37 °F
Feuchtigkeit 86%
Regen 0.00 inch
Schneehöhe Nicht verfügbar..
7:22 AM 6:06 PM
Letztes Viertel, 18% visible
METAR LSGS 221020Z 23004KT 190V250 9999 FEW100 10/04 Q1020

Get Your Daily Forecast Email!

Thanks for signing up!

Be on the lookout for a verification email in your inbox.

You'll start receiving the daily forecast at 8 AM.

×

10-Day Weather Forecast

×

Almanac

Astronomie

Feb. 22, 2017 Aufgang Untergang
Genaue Zeit
Bürgerliche Dämmerung
Nautische Dämmerung
Astronomische Dämmerung
Mond
Länge des sichtbaren Lichts
Tageslänge
Tomorrow will be .
, % of the Moon is Illuminated

Heutige Rekorde

Country Highs Country Lows

Community

WunderPhotos

Upload Photos

1,962,540 Fotos hochgeladen!

WunderBlog® & News

Nearby

Luftqualität

  Luftqualität LQ Index Schadstoff
Not available.

Schneehöhe

Station Depth Höhe

Erdbebenaktivität

Stadt Distance Mag. Time & Date
Minimum magnitude displayed is 2.5.

küstennahe Wassertemperaturen

Ort Temperatur

Stations

Wetterstationen in der Umgebung

Stationsstandort Temp. Windchill Taupunkt Feuchtigkeit Wind Precip. Höhe Aktualisiert Art